Gale Watch
click here for details
SBYC BurgeeSandy Bay Yacht Club
Weather Center


Nearby METAR Reports

Nearby METAR Reports

 

KBVY - Beverly, Massachusetts, USA
Distance from station: WSW 16mi, 26km
Updated: Tue, 22-Jan-2019 4:53pm EST
Clear
Clear
 Wind from NNW
Wind: NNW 9 mph , 15 km/h
Temperature: 23°F , -5°C
Wind Chill: 13°F , -11°C
Dew Point: -6°F , -21°C
Humidity: 28%
Barometer: 30.52 inHg , 1033.5 hPa
Clouds: Clear
Visibility: 10 miles , 16 km
2019/01/22 21:53 KBVY 222153Z 33008KT 10SM CLR M05/M21 A3052 RMK AO2 SLP334 T10501211
KLWM - Lawrence, Massachusetts, USA
Distance from station: W 27mi, 43km
Updated: Tue, 22-Jan-2019 4:54pm EST
Clear
Clear
 Wind from WNW
Wind: WNW 9 mph , 15 km/h
Temperature: 23°F , -5°C
Wind Chill: 13°F , -11°C
Dew Point: -8°F , -22°C
Humidity: 25%
Barometer: 30.54 inHg , 1034.2 hPa
Clouds: Clear
Visibility: 10 miles , 16 km
2019/01/22 21:54 KLWM 222154Z 29008KT 10SM CLR M05/M22 A3054 RMK AO2 SLP344 T10501222
 
KBOS - Boston, Massachusetts, USA
Distance from station: SW 29mi, 46km
Updated: Tue, 22-Jan-2019 4:54pm EST
Mostly Cloudy
Mostly Cloudy
 Wind from WNW
Wind: WNW 12 mph , 19 km/h
Temperature: 28°F , -2°C
Wind Chill: 18°F , -8°C
Dew Point: -6°F , -21°C
Humidity: 22%
Barometer: 30.54 inHg , 1034.2 hPa
Clouds: Mostly Cloudy
Visibility: 10 miles , 16 km
Cloud details: Partly Cloudy 13000 ft
Mostly Cloudy 23000 ft
2019/01/22 21:54 KBOS 222154Z 29010KT 10SM SCT130 BKN230 M02/M21 A3054 RMK AO2 SLP340 T10221211
KPSM - Portsmouth/Pease, New Hampshire, USA
Distance from station: NNW 30mi, 48km
Updated: Tue, 22-Jan-2019 4:56pm EST
Mostly Cloudy
Mostly Cloudy
 Wind from W
Wind: W 13 mph , 20 km/h, Gust: 22 mph , 35 km/h
Temperature: 21°F , -6°C
Wind Chill: 8°F , -13°C
Dew Point: -9°F , -23°C
Humidity: 25%
Barometer: 30.50 inHg , 1032.8 hPa
Clouds: Mostly Cloudy
Visibility: 10 miles , 16 km
Cloud details: Mostly Cloudy 25000 ft
2019/01/22 21:56 KPSM 222156Z 28011G19KT 10SM BKN250 M06/M23 A3050 RMK AO2A SLP333 T10621235
 
KMHT - Manchester, New Hampshire, USA
Distance from station: WNW 46mi, 73km
Updated: Tue, 22-Jan-2019 4:53pm EST
Mostly Cloudy
Mostly Cloudy
 Wind from NNW
Wind: NNW 6 mph , 9 km/h
Temperature: 19°F , -7°C
Wind Chill: 11°F , -12°C
Dew Point: -2°F , -19°C
Humidity: 38%
Barometer: 30.52 inHg , 1033.5 hPa
Clouds: Mostly Cloudy
Visibility: 10 miles , 16 km
Cloud details: Mostly Cloudy 25000 ft
2019/01/22 21:53 KMHT 222153Z 34005KT 10SM BKN250 M07/M19 A3052 RMK AO2 SLP358 T10671194
KPVC - Provincetown, Massachusetts, USA
Distance from station: SSE 46mi, 73km
Updated: Tue, 22-Jan-2019 4:56pm EST
Clear
Clear
 Wind from NW
Wind: NW 18 mph , 30 km/h, Gust: 24 mph , 39 km/h
Temperature: 27°F , -3°C
Wind Chill: 14°F , -10°C
Dew Point: 9°F , -13°C
Humidity: 46%
Barometer: 30.53 inHg , 1033.9 hPa
Clouds: Clear
Visibility: 10 miles , 16 km
2019/01/22 21:56 KPVC 222156Z AUTO 32016G21KT 10SM CLR M03/M13 A3053 RMK AO2 SLP336 T10331133 FZRANO
 
KDAW - Rochester, New Hampshire, USA
Distance from station: NNW 46mi, 74km
Updated: Tue, 22-Jan-2019 5:51pm EST
Clear
Clear
 Wind from NW
Wind: NW 12 mph , 19 km/h
Temperature: 18°F , -8°C
Wind Chill: 5°F , -15°C
Dew Point: -8°F , -22°C
Humidity: 32%
Barometer: 30.49 inHg , 1032.5 hPa
Clouds: Clear
Visibility: 10 miles , 16 km
2019/01/22 22:51 KDAW 222251Z AUTO 31010KT 10SM CLR M08/M22 A3049 RMK AO2 SLP330 T10781222
KASH - Nashua/Boire Fld, New Hampshire, USA
Distance from station: W 47mi, 75km
Updated: Tue, 22-Jan-2019 4:56pm EST
Clear
Clear
 Wind from NW
Wind: NW 6 mph , 9 km/h
Temperature: 21°F , -6°C
Wind Chill: 13°F , -11°C
Dew Point: -2°F , -19°C
Humidity: 35%
Barometer: 30.53 inHg , 1033.9 hPa
Clouds: Clear
Visibility: 10 miles , 16 km
2019/01/22 21:56 KASH 222156Z 32005KT 10SM CLR M06/M19 A3053 RMK AO2 SLP352 T10561189 $
 
KSFM - Sanford Muni, Maine, USA
Distance from station: N 50mi, 81km
Updated: Tue, 22-Jan-2019 4:56pm EST
Clear
Clear
 Wind from WNW
Wind: WNW 12 mph , 19 km/h
Temperature: 18°F , -8°C
Wind Chill: 5°F , -15°C
Dew Point: -6°F , -21°C
Humidity: 35%
Barometer: 30.50 inHg , 1032.8 hPa
Clouds: Clear
Visibility: 10 miles , 16 km
2019/01/22 21:56 KSFM 222156Z AUTO 30010KT 10SM CLR M08/M21 A3050 RMK AO2 SLP336 T10781211 FZRANO PNO $

Metar display script from Saratoga-Weather.org

 



home

Copyright © Sandy Bay Yacht Club. All rights reserved.